createdAt,value
2019-03-18T00:00:27.586Z,3.80
2019-03-18T00:02:56.834Z,3.80
2019-03-18T00:05:26.314Z,3.70
2019-03-18T00:07:55.231Z,3.70
2019-03-18T00:10:24.427Z,3.70
2019-03-18T00:12:54.174Z,3.60
2019-03-18T00:15:23.849Z,3.60
2019-03-18T00:17:53.602Z,3.60
2019-03-18T00:20:23.142Z,3.50
2019-03-18T00:22:52.618Z,3.50
2019-03-18T00:25:21.927Z,3.50
2019-03-18T00:27:51.439Z,3.50
2019-03-18T00:30:22.239Z,3.50
2019-03-18T00:32:51.600Z,3.40
2019-03-18T00:35:20.856Z,3.40
2019-03-18T00:37:50.385Z,3.40
2019-03-18T00:40:19.647Z,3.40
2019-03-18T00:42:49.456Z,3.40
2019-03-18T00:45:18.979Z,3.30
2019-03-18T00:47:48.554Z,3.30
2019-03-18T00:50:17.817Z,3.30
2019-03-18T00:52:46.687Z,3.30
2019-03-18T00:55:15.995Z,3.20
2019-03-18T00:57:45.404Z,3.20
2019-03-18T01:00:14.661Z,3.20
2019-03-18T01:02:43.993Z,3.20
2019-03-18T01:05:13.115Z,3.20
2019-03-18T01:07:41.896Z,3.20
2019-03-18T01:10:11.899Z,3.20
2019-03-18T01:12:41.377Z,3.20
2019-03-18T01:15:10.260Z,3.10
2019-03-18T01:17:39.499Z,3.10
2019-03-18T01:20:08.735Z,3.30
2019-03-18T01:22:37.803Z,3.10
2019-03-18T01:25:07.296Z,3.00
2019-03-18T01:27:36.415Z,3.00
2019-03-18T01:30:05.743Z,3.00
2019-03-18T01:32:34.919Z,3.00
2019-03-18T01:35:04.084Z,2.90
2019-03-18T01:37:33.251Z,2.90
2019-03-18T01:40:02.462Z,2.90
2019-03-18T01:42:31.331Z,2.90
2019-03-18T01:45:00.511Z,2.90
2019-03-18T01:47:30.066Z,2.90
2019-03-18T01:49:58.889Z,2.80
2019-03-18T01:52:28.492Z,2.80
2019-03-18T01:54:57.571Z,2.80
2019-03-18T01:57:26.766Z,2.80
2019-03-18T01:59:55.620Z,2.80
2019-03-18T02:02:24.832Z,2.70
2019-03-18T02:04:53.687Z,2.70
2019-03-18T02:07:22.916Z,2.70
2019-03-18T02:09:52.150Z,2.70
2019-03-18T02:12:21.327Z,2.60
2019-03-18T02:14:50.395Z,2.60
2019-03-18T02:17:19.512Z,2.60
2019-03-18T02:19:48.772Z,2.50
2019-03-18T02:22:17.687Z,2.50
2019-03-18T02:24:46.759Z,2.50
2019-03-18T02:27:15.987Z,2.50
2019-03-18T02:29:45.348Z,2.50
2019-03-18T02:32:14.257Z,2.50
2019-03-18T02:34:43.339Z,2.50
2019-03-18T02:37:12.680Z,2.50
2019-03-18T02:39:41.776Z,2.40
2019-03-18T02:42:10.936Z,2.40
2019-03-18T02:44:39.750Z,2.40
2019-03-18T02:47:09.173Z,2.40
2019-03-18T02:49:38.799Z,2.40
2019-03-18T02:52:07.662Z,2.30
2019-03-18T02:54:36.803Z,2.40
2019-03-18T02:57:05.736Z,2.30
2019-03-18T02:59:34.661Z,2.30
2019-03-18T03:02:03.955Z,2.30
2019-03-18T03:04:32.824Z,2.30
2019-03-18T03:07:02.282Z,2.30
2019-03-18T03:09:31.237Z,2.20
2019-03-18T03:12:00.440Z,2.20
2019-03-18T03:14:29.920Z,2.20
2019-03-18T03:16:58.718Z,2.20
2019-03-18T03:19:27.886Z,2.10
2019-03-18T03:21:57.000Z,2.10
2019-03-18T03:24:25.794Z,2.10
2019-03-18T03:26:54.760Z,2.00
2019-03-18T03:29:24.144Z,2.00
2019-03-18T03:31:53.247Z,2.00
2019-03-18T03:34:22.647Z,2.00
2019-03-18T03:36:52.078Z,2.00
2019-03-18T03:39:21.226Z,1.90
2019-03-18T03:41:50.258Z,1.90
2019-03-18T03:44:19.642Z,1.90
2019-03-18T03:46:48.489Z,1.80
2019-03-18T03:49:18.005Z,1.80
2019-03-18T03:51:47.102Z,1.80
2019-03-18T03:54:16.595Z,1.80
2019-03-18T03:56:46.215Z,1.80
2019-03-18T03:59:16.253Z,1.70
2019-03-18T04:01:45.274Z,1.70
2019-03-18T04:04:14.542Z,1.60
2019-03-18T04:06:43.853Z,1.60
2019-03-18T04:09:13.099Z,1.60
2019-03-18T04:11:41.969Z,1.60
2019-03-18T04:14:11.152Z,1.50
2019-03-18T04:16:43.906Z,1.50
2019-03-18T04:19:10.891Z,1.50
2019-03-18T04:21:39.731Z,1.50
2019-03-18T04:24:08.916Z,1.50
2019-03-18T04:26:38.069Z,1.50
2019-03-18T04:29:07.419Z,1.50
2019-03-18T04:31:36.497Z,1.60
2019-03-18T04:34:05.750Z,1.60
2019-03-18T04:36:35.320Z,1.60
2019-03-18T04:39:07.113Z,1.60
2019-03-18T04:41:36.331Z,1.70
2019-03-18T04:44:05.252Z,1.70
2019-03-18T04:46:34.130Z,1.70
2019-03-18T04:49:03.215Z,1.60
2019-03-18T04:51:32.303Z,1.60
2019-03-18T04:54:01.459Z,1.60
2019-03-18T04:56:30.860Z,1.60
2019-03-18T04:58:59.978Z,1.60
2019-03-18T05:01:29.059Z,1.60
2019-03-18T05:03:58.204Z,1.60
2019-03-18T05:06:27.551Z,1.50
2019-03-18T05:08:57.011Z,1.50
2019-03-18T05:11:26.557Z,1.50
2019-03-18T05:13:56.035Z,1.40
2019-03-18T05:16:25.183Z,1.40
2019-03-18T05:18:54.865Z,1.30
2019-03-18T05:21:23.885Z,1.20
2019-03-18T05:23:52.879Z,1.10
2019-03-18T05:26:22.528Z,1.10
2019-03-18T05:28:51.861Z,1.10
2019-03-18T05:31:20.893Z,1.00
2019-03-18T05:33:49.849Z,1.00
2019-03-18T05:36:18.690Z,1.00
2019-03-18T05:38:47.788Z,1.00
2019-03-18T05:41:16.909Z,1.00
2019-03-18T05:43:45.646Z,1.00
2019-03-18T05:46:14.448Z,0.90
2019-03-18T05:48:43.222Z,0.90
2019-03-18T05:51:12.013Z,0.90
2019-03-18T05:53:41.031Z,0.80
2019-03-18T05:56:09.907Z,0.80
2019-03-18T05:58:38.947Z,0.80
2019-03-18T06:01:07.917Z,0.80
2019-03-18T06:03:36.782Z,0.80
2019-03-18T06:06:05.652Z,0.80
2019-03-18T06:08:35.039Z,0.80
2019-03-18T06:11:04.223Z,0.80
2019-03-18T06:13:33.578Z,0.80
2019-03-18T06:16:03.002Z,0.80
2019-03-18T06:18:31.787Z,0.80
2019-03-18T06:21:00.800Z,0.80
2019-03-18T06:23:29.939Z,0.80
2019-03-18T06:25:58.751Z,0.80
2019-03-18T06:28:27.647Z,0.80
2019-03-18T06:30:56.772Z,0.80
2019-03-18T06:33:25.854Z,0.80
2019-03-18T06:35:54.694Z,0.80
2019-03-18T06:38:24.075Z,0.80
2019-03-18T06:40:53.571Z,0.80
2019-03-18T06:43:22.357Z,0.90
2019-03-18T06:45:51.239Z,1.00
2019-03-18T06:48:20.147Z,1.00
2019-03-18T06:50:49.294Z,1.10
2019-03-18T06:53:18.178Z,1.20
2019-03-18T06:55:47.323Z,0.50
2019-03-18T06:58:16.524Z,1.50
2019-03-18T07:00:45.456Z,1.60
2019-03-18T07:03:14.407Z,1.80
2019-03-18T07:05:46.127Z,2.00
2019-03-18T07:08:13.960Z,2.20
2019-03-18T07:10:42.835Z,2.30
2019-03-18T07:13:11.714Z,2.50
2019-03-18T07:15:40.770Z,2.60
2019-03-18T07:18:18.230Z,2.80
2019-03-18T07:20:41.292Z,2.90
2019-03-18T07:23:10.479Z,2.90
2019-03-18T07:25:39.404Z,3.00
2019-03-18T07:28:08.842Z,3.00
2019-03-18T07:30:37.998Z,3.00
2019-03-18T07:33:06.842Z,3.00
2019-03-18T07:35:36.067Z,3.00
2019-03-18T07:38:05.275Z,2.90
2019-03-18T07:40:34.666Z,2.90
2019-03-18T07:43:03.744Z,3.00
2019-03-18T07:45:32.910Z,3.00
2019-03-18T07:48:01.886Z,3.00
2019-03-18T07:50:30.657Z,3.00
2019-03-18T07:52:59.842Z,3.00
2019-03-18T07:55:28.678Z,3.00
2019-03-18T07:57:57.483Z,3.00
2019-03-18T08:00:26.686Z,3.00
2019-03-18T08:02:55.575Z,3.00
2019-03-18T08:05:24.478Z,3.00
2019-03-18T08:07:53.446Z,3.00
2019-03-18T08:10:22.543Z,3.00
2019-03-18T08:12:51.611Z,3.10
2019-03-18T08:15:20.754Z,3.10
2019-03-18T08:17:50.074Z,3.20
2019-03-18T08:20:18.954Z,3.20
2019-03-18T08:22:48.314Z,3.30
2019-03-18T08:25:17.395Z,3.40
2019-03-18T08:27:46.185Z,3.40
2019-03-18T08:30:15.351Z,3.40
2019-03-18T08:32:44.143Z,3.50
2019-03-18T08:35:12.947Z,3.50
2019-03-18T08:37:41.855Z,3.50
2019-03-18T08:40:11.231Z,3.50
2019-03-18T08:42:40.014Z,3.50
2019-03-18T08:45:09.131Z,3.50
2019-03-18T08:47:38.008Z,3.50
2019-03-18T08:50:07.022Z,3.50
2019-03-18T08:52:35.826Z,3.50
2019-03-18T08:55:04.808Z,3.50
2019-03-18T08:57:33.633Z,3.50
2019-03-18T09:00:02.878Z,3.60
2019-03-18T09:02:32.117Z,3.60
2019-03-18T09:05:01.190Z,3.60
2019-03-18T09:07:30.089Z,3.60
2019-03-18T09:09:59.011Z,3.60
2019-03-18T09:12:28.112Z,3.60
2019-03-18T09:14:57.342Z,3.60
2019-03-18T09:17:26.528Z,3.70
2019-03-18T09:19:55.312Z,3.90
2019-03-18T09:22:24.154Z,4.00
2019-03-18T09:24:53.363Z,3.90
2019-03-18T09:27:22.168Z,4.10
2019-03-18T09:29:51.019Z,4.10
2019-03-18T09:32:19.785Z,4.20
2019-03-18T09:34:48.697Z,4.20
2019-03-18T09:37:17.815Z,4.20
2019-03-18T09:39:46.838Z,4.30
2019-03-18T09:42:17.910Z,4.40
2019-03-18T09:44:46.366Z,4.40
2019-03-18T09:47:15.482Z,4.50
2019-03-18T09:49:44.294Z,4.50
2019-03-18T09:52:13.449Z,4.70
2019-03-18T09:54:42.504Z,4.70
2019-03-18T09:57:11.327Z,4.90
2019-03-18T09:59:40.422Z,4.90
2019-03-18T10:02:09.503Z,5.10
2019-03-18T10:04:38.634Z,5.40
2019-03-18T10:07:07.454Z,5.90
2019-03-18T10:09:36.683Z,6.30
2019-03-18T10:12:05.816Z,6.60
2019-03-18T10:14:35.025Z,6.70
2019-03-18T10:17:09.554Z,6.70
2019-03-18T10:19:35.054Z,6.80
2019-03-18T10:22:04.328Z,6.90
2019-03-18T10:24:33.722Z,6.70
2019-03-18T10:27:02.773Z,6.90
2019-03-18T10:29:31.606Z,7.40
2019-03-18T10:32:00.706Z,7.80
2019-03-18T10:34:29.555Z,8.00
2019-03-18T10:36:58.503Z,7.80
2019-03-18T10:39:27.709Z,8.00
2019-03-18T10:41:56.762Z,8.10
2019-03-18T10:44:25.623Z,7.90
2019-03-18T10:46:54.438Z,7.50
2019-03-18T10:49:23.542Z,7.20
2019-03-18T10:51:52.398Z,6.80
2019-03-18T10:54:30.954Z,6.60
2019-03-18T10:56:52.353Z,6.40
2019-03-18T10:59:21.257Z,6.20
2019-03-18T11:01:50.106Z,6.20
2019-03-18T11:04:19.078Z,5.90
2019-03-18T11:06:48.215Z,5.90
2019-03-18T11:09:17.614Z,5.80
2019-03-18T11:11:46.569Z,5.70
2019-03-18T11:14:15.670Z,5.80
2019-03-18T11:16:44.570Z,5.80
2019-03-18T11:19:13.639Z,5.80
2019-03-18T11:21:42.625Z,5.80
2019-03-18T11:24:11.740Z,5.70
2019-03-18T11:26:40.887Z,5.60
2019-03-18T11:29:09.978Z,5.60
2019-03-18T11:31:38.902Z,5.60
2019-03-18T11:34:08.113Z,5.50
2019-03-18T11:36:37.332Z,5.60
2019-03-18T11:39:08.022Z,5.70
2019-03-18T11:41:38.464Z,5.60
2019-03-18T11:44:08.049Z,5.50
2019-03-18T11:46:40.246Z,5.50
2019-03-18T11:49:08.175Z,5.40
2019-03-18T11:51:37.443Z,5.40
2019-03-18T11:54:06.241Z,5.40
2019-03-18T11:56:35.018Z,5.40
2019-03-18T11:59:03.862Z,5.30
2019-03-18T12:01:32.743Z,5.20
2019-03-18T12:04:01.713Z,5.20
2019-03-18T12:06:30.581Z,5.20
2019-03-18T12:08:59.869Z,5.20
2019-03-18T12:11:29.994Z,5.20
2019-03-18T12:13:58.781Z,5.20
2019-03-18T12:16:27.821Z,5.20
2019-03-18T12:18:56.808Z,5.30
2019-03-18T12:21:25.686Z,5.20
2019-03-18T12:23:54.455Z,5.20
2019-03-18T12:26:23.249Z,5.20
2019-03-18T12:28:52.024Z,5.20
2019-03-18T12:31:21.004Z,5.10
2019-03-18T12:33:50.267Z,5.10
2019-03-18T12:36:19.343Z,5.10
2019-03-18T12:38:48.230Z,5.20
2019-03-18T12:41:17.132Z,5.20
2019-03-18T12:43:45.984Z,5.30
2019-03-18T12:46:14.785Z,5.40
2019-03-18T12:48:43.626Z,5.50
2019-03-18T12:51:12.440Z,5.60
2019-03-18T12:53:41.491Z,5.70
2019-03-18T12:56:10.860Z,6.00
2019-03-18T12:58:40.029Z,6.20
2019-03-18T13:01:12.755Z,6.40
2019-03-18T13:03:40.248Z,6.50
2019-03-18T13:06:09.288Z,6.50
2019-03-18T13:08:38.096Z,6.40
2019-03-18T13:11:07.320Z,6.50
2019-03-18T13:13:36.291Z,6.50
2019-03-18T13:16:05.062Z,6.70
2019-03-18T13:18:34.373Z,7.00
2019-03-18T13:21:07.853Z,7.30
2019-03-18T13:23:34.753Z,8.00
2019-03-18T13:26:03.951Z,8.40
2019-03-18T13:28:32.992Z,8.80
2019-03-18T13:31:01.752Z,8.60
2019-03-18T13:33:30.504Z,8.50
2019-03-18T13:35:59.803Z,8.70
2019-03-18T13:38:29.184Z,8.50
2019-03-18T13:40:58.061Z,8.30
2019-03-18T13:43:28.055Z,8.20
2019-03-18T13:45:57.110Z,8.20
2019-03-18T13:48:26.098Z,8.00
2019-03-18T13:50:55.236Z,8.00
2019-03-18T13:53:24.504Z,7.80
2019-03-18T13:55:53.284Z,7.60
2019-03-18T13:58:22.388Z,7.30
2019-03-18T14:00:51.433Z,7.20
2019-03-18T14:03:20.486Z,7.20
2019-03-18T14:05:49.593Z,7.30
2019-03-18T14:08:18.646Z,7.40
2019-03-18T14:10:47.462Z,7.50
2019-03-18T14:13:16.536Z,7.70
2019-03-18T14:15:45.340Z,7.90
2019-03-18T14:18:14.213Z,8.10
2019-03-18T14:20:43.268Z,8.00
2019-03-18T14:23:12.541Z,8.00
2019-03-18T14:25:41.521Z,8.00
2019-03-18T14:28:10.318Z,8.00
2019-03-18T14:30:39.094Z,8.10
2019-03-18T14:33:08.296Z,8.10
2019-03-18T14:35:37.124Z,8.10
2019-03-18T14:38:06.420Z,7.90
2019-03-18T14:40:35.518Z,7.70
2019-03-18T14:43:04.886Z,7.60
2019-03-18T14:45:33.722Z,7.70
2019-03-18T14:48:02.516Z,7.60
2019-03-18T14:50:31.847Z,7.70
2019-03-18T14:53:00.593Z,7.70
2019-03-18T14:55:29.715Z,7.60
2019-03-18T14:57:59.092Z,7.50
2019-03-18T15:00:28.009Z,7.40
2019-03-18T15:02:56.886Z,7.50
2019-03-18T15:05:26.121Z,7.50
2019-03-18T15:07:54.847Z,7.40
2019-03-18T15:10:23.722Z,7.40
2019-03-18T15:12:52.810Z,7.30
2019-03-18T15:15:21.926Z,7.20
2019-03-18T15:17:50.858Z,7.20
2019-03-18T15:20:19.926Z,7.10
2019-03-18T15:22:48.793Z,7.00
2019-03-18T15:25:19.975Z,7.00
2019-03-18T15:27:49.218Z,7.00
2019-03-18T15:30:19.222Z,7.10
2019-03-18T15:32:48.151Z,7.00
2019-03-18T15:35:17.460Z,7.00
2019-03-18T15:37:46.670Z,6.90
2019-03-18T15:40:16.433Z,7.00
2019-03-18T15:42:45.369Z,7.00
2019-03-18T15:45:14.942Z,6.90
2019-03-18T15:47:44.434Z,6.90
2019-03-18T15:50:15.556Z,6.80
2019-03-18T15:52:44.450Z,6.70
2019-03-18T15:55:13.666Z,6.60
2019-03-18T15:57:42.596Z,6.60
2019-03-18T16:00:13.795Z,6.50
2019-03-18T16:02:42.582Z,6.50
2019-03-18T16:05:11.658Z,6.40
2019-03-18T16:07:40.519Z,6.30
2019-03-18T16:10:10.044Z,6.20
2019-03-18T16:12:38.892Z,6.20
2019-03-18T16:15:08.582Z,6.10
2019-03-18T16:17:37.544Z,6.00
2019-03-18T16:20:08.198Z,5.90
2019-03-18T16:22:36.978Z,5.90
2019-03-18T16:25:05.958Z,5.80
2019-03-18T16:27:34.920Z,5.80
2019-03-18T16:30:04.293Z,5.60
2019-03-18T16:32:33.776Z,5.50
2019-03-18T16:35:02.641Z,5.50
2019-03-18T16:37:31.974Z,5.80
2019-03-18T16:40:01.609Z,5.40
2019-03-18T16:42:30.729Z,5.30
2019-03-18T16:45:00.383Z,5.30
2019-03-18T16:47:31.313Z,5.20
2019-03-18T16:50:00.454Z,5.20
2019-03-18T16:52:35.730Z,5.10
2019-03-18T16:55:00.689Z,5.10
2019-03-18T16:57:29.755Z,5.00
2019-03-18T16:59:59.147Z,4.90
2019-03-18T17:02:28.287Z,4.80
2019-03-18T17:04:57.679Z,4.70
2019-03-18T17:07:27.130Z,4.60
2019-03-18T17:09:56.215Z,4.40
2019-03-18T17:12:25.274Z,4.40
2019-03-18T17:14:54.431Z,4.30
2019-03-18T17:17:23.462Z,4.30
2019-03-18T17:19:53.047Z,2.70
2019-03-18T17:22:21.830Z,4.20
2019-03-18T17:24:50.941Z,4.10
2019-03-18T17:27:20.230Z,4.10
2019-03-18T17:29:49.602Z,4.00
2019-03-18T17:32:18.735Z,4.00
2019-03-18T17:34:48.002Z,3.90
2019-03-18T17:37:17.229Z,3.90
2019-03-18T17:39:46.360Z,3.80
2019-03-18T17:42:15.438Z,3.80
2019-03-18T17:44:44.236Z,3.80
2019-03-18T17:47:13.307Z,3.70
2019-03-18T17:49:42.371Z,3.70
2019-03-18T17:52:11.197Z,3.70
2019-03-18T17:54:40.257Z,3.70
2019-03-18T17:57:11.154Z,3.70
2019-03-18T17:59:40.602Z,3.70
2019-03-18T18:02:09.706Z,3.60
2019-03-18T18:04:38.862Z,3.60
2019-03-18T18:07:07.953Z,3.60
2019-03-18T18:09:36.759Z,3.60
2019-03-18T18:12:07.862Z,3.60
2019-03-18T18:14:37.014Z,3.60
2019-03-18T18:17:06.170Z,3.60
2019-03-18T18:19:34.929Z,3.60
2019-03-18T18:22:04.466Z,3.60
2019-03-18T18:24:33.629Z,3.60
2019-03-18T18:27:02.839Z,3.60
2019-03-18T18:29:31.937Z,3.60
2019-03-18T18:32:01.399Z,3.60
2019-03-18T18:34:30.494Z,3.60
2019-03-18T18:36:59.386Z,3.50
2019-03-18T18:39:28.810Z,3.50
2019-03-18T18:41:58.409Z,1.30
2019-03-18T18:44:27.522Z,3.40
2019-03-18T18:46:56.314Z,3.30
2019-03-18T18:49:25.665Z,3.30
2019-03-18T18:51:55.043Z,3.30
2019-03-18T18:54:24.180Z,3.30
2019-03-18T18:56:52.957Z,3.30
2019-03-18T18:59:22.090Z,3.20
2019-03-18T19:01:51.635Z,3.20
2019-03-18T19:04:20.733Z,3.20
2019-03-18T19:06:49.773Z,3.20
2019-03-18T19:09:19.155Z,3.20
2019-03-18T19:11:48.510Z,3.20
2019-03-18T19:14:18.205Z,3.20
2019-03-18T19:16:47.442Z,3.20
2019-03-18T19:19:16.532Z,3.20
2019-03-18T19:21:45.405Z,3.20
2019-03-18T19:24:14.818Z,3.20
2019-03-18T19:26:44.018Z,3.30
2019-03-18T19:29:13.227Z,3.30
2019-03-18T19:31:42.542Z,3.20
2019-03-18T19:34:11.460Z,3.30
2019-03-18T19:36:40.273Z,3.20
2019-03-18T19:39:09.371Z,3.20
2019-03-18T19:41:40.186Z,3.20
2019-03-18T19:44:09.686Z,3.20
2019-03-18T19:46:38.480Z,3.20
2019-03-18T19:49:07.635Z,3.20
2019-03-18T19:51:36.778Z,3.10
2019-03-18T19:54:08.030Z,3.10
2019-03-18T19:56:37.340Z,3.00
2019-03-18T19:59:06.493Z,3.00
2019-03-18T20:01:35.319Z,2.90
2019-03-18T20:04:04.233Z,2.90
2019-03-18T20:06:33.326Z,2.90
2019-03-18T20:09:02.403Z,2.80
2019-03-18T20:11:31.543Z,2.80
2019-03-18T20:14:00.694Z,2.70
2019-03-18T20:16:29.754Z,2.70
2019-03-18T20:18:58.844Z,2.60
2019-03-18T20:21:28.373Z,2.50
2019-03-18T20:24:01.072Z,2.50
2019-03-18T20:26:30.250Z,2.50
2019-03-18T20:28:59.185Z,2.40
2019-03-18T20:31:28.225Z,2.40
2019-03-18T20:33:57.740Z,2.40
2019-03-18T20:36:27.109Z,2.40
2019-03-18T20:38:56.539Z,2.40
2019-03-18T20:41:25.635Z,2.40
2019-03-18T20:43:54.995Z,2.40
2019-03-18T20:46:24.705Z,2.40
2019-03-18T20:48:54.155Z,2.40
2019-03-18T20:51:22.942Z,2.30
2019-03-18T20:53:51.996Z,2.30
2019-03-18T20:56:20.875Z,2.30
2019-03-18T20:58:49.850Z,2.20
2019-03-18T21:01:19.200Z,2.20
2019-03-18T21:03:48.840Z,2.20
2019-03-18T21:06:17.930Z,2.10
2019-03-18T21:08:47.407Z,2.00
2019-03-18T21:11:16.616Z,2.00
2019-03-18T21:13:56.419Z,1.90
2019-03-18T21:16:16.515Z,1.90
2019-03-18T21:18:45.954Z,1.80
2019-03-18T21:21:15.033Z,1.80
2019-03-18T21:23:43.885Z,1.80
2019-03-18T21:26:13.421Z,1.70
2019-03-18T21:28:42.309Z,1.70
2019-03-18T21:31:11.527Z,1.70
2019-03-18T21:33:40.616Z,1.70
2019-03-18T21:36:09.791Z,1.60
2019-03-18T21:38:39.033Z,1.60
2019-03-18T21:41:08.177Z,1.50
2019-03-18T21:43:37.271Z,1.50
2019-03-18T21:46:06.811Z,1.50
2019-03-18T21:48:35.728Z,1.40
2019-03-18T21:51:04.737Z,1.40
2019-03-18T21:53:34.111Z,1.40
2019-03-18T21:56:03.327Z,1.30
2019-03-18T21:58:33.215Z,1.30
2019-03-18T22:01:02.431Z,1.30
2019-03-18T22:03:31.549Z,1.30
2019-03-18T22:06:01.042Z,1.30
2019-03-18T22:08:30.612Z,1.30
2019-03-18T22:10:59.453Z,1.20
2019-03-18T22:13:28.671Z,1.20
2019-03-18T22:15:58.533Z,1.20
2019-03-18T22:18:27.810Z,1.10
2019-03-18T22:20:57.551Z,1.10
2019-03-18T22:23:26.630Z,1.10
2019-03-18T22:25:55.805Z,1.00
2019-03-18T22:28:25.002Z,0.90
2019-03-18T22:30:54.195Z,0.80
2019-03-18T22:33:23.041Z,0.80
2019-03-18T22:35:52.035Z,0.70
2019-03-18T22:38:21.459Z,0.70
2019-03-18T22:40:50.556Z,0.60
2019-03-18T22:43:19.376Z,0.60
2019-03-18T22:45:48.759Z,0.60
2019-03-18T22:48:17.850Z,0.60
2019-03-18T22:50:47.030Z,0.50
2019-03-18T22:53:15.928Z,0.50
2019-03-18T22:55:45.052Z,0.50
2019-03-18T22:58:14.188Z,0.50
2019-03-18T23:00:47.387Z,0.40
2019-03-18T23:03:17.019Z,0.40
2019-03-18T23:05:46.514Z,0.30
2019-03-18T23:08:15.675Z,0.30
2019-03-18T23:10:44.898Z,0.30
2019-03-18T23:13:13.819Z,0.20
2019-03-18T23:15:42.956Z,0.20
2019-03-18T23:18:12.127Z,0.20
2019-03-18T23:20:41.062Z,0.10
2019-03-18T23:23:09.967Z,0.00
2019-03-18T23:25:38.817Z,0.00
2019-03-18T23:28:07.759Z,-0.10
2019-03-18T23:30:36.995Z,-0.10
2019-03-18T23:33:06.156Z,-0.10
2019-03-18T23:35:35.246Z,-0.10
2019-03-18T23:38:04.275Z,-0.10
2019-03-18T23:40:33.471Z,-0.20
2019-03-18T23:43:02.419Z,-0.20
2019-03-18T23:45:31.744Z,-0.30
2019-03-18T23:48:00.660Z,-0.30
2019-03-18T23:50:30.121Z,-0.30
2019-03-18T23:52:59.312Z,-0.30
2019-03-18T23:55:28.656Z,-0.30
2019-03-18T23:57:57.807Z,-0.40
